sensor_id;sensor_type;location;lat;lon;timestamp;pressure;altitude;pressure_sealevel;temperature;humidity
42591;BME280;28218;53.342;-6.216;2023-11-19T00:01:17;99659.16;;;12.05;100.00
42591;BME280;28218;53.342;-6.216;2023-11-19T00:03:46;99655.88;;;12.02;100.00
42591;BME280;28218;53.342;-6.216;2023-11-19T00:06:17;99655.88;;;12.02;100.00
42591;BME280;28218;53.342;-6.216;2023-11-19T00:08:45;99652.66;;;12.00;100.00
42591;BME280;28218;53.342;-6.216;2023-11-19T00:11:16;99645.53;;;12.01;100.00
42591;BME280;28218;53.342;-6.216;2023-11-19T00:13:45;99653.03;;;12.04;100.00
42591;BME280;28218;53.342;-6.216;2023-11-19T00:16:14;99642.28;;;12.06;100.00
42591;BME280;28218;53.342;-6.216;2023-11-19T00:18:43;99639.66;;;12.06;100.00
42591;BME280;28218;53.342;-6.216;2023-11-19T00:21:11;99635.16;;;11.99;100.00
42591;BME280;28218;53.342;-6.216;2023-11-19T00:23:39;99644.53;;;11.95;100.00
42591;BME280;28218;53.342;-6.216;2023-11-19T00:26:08;99641.25;;;11.93;100.00
42591;BME280;28218;53.342;-6.216;2023-11-19T00:28:36;99640.03;;;11.89;100.00
42591;BME280;28218;53.342;-6.216;2023-11-19T00:31:06;99648.97;;;11.88;100.00
42591;BME280;28218;53.342;-6.216;2023-11-19T00:33:35;99655.28;;;11.87;100.00
42591;BME280;28218;53.342;-6.216;2023-11-19T00:36:16;99659.53;;;11.88;100.00
42591;BME280;28218;53.342;-6.216;2023-11-19T00:38:44;99655.88;;;11.89;100.00
42591;BME280;28218;53.342;-6.216;2023-11-19T00:41:15;99649.78;;;11.89;100.00
42591;BME280;28218;53.342;-6.216;2023-11-19T00:43:43;99664.41;;;11.91;100.00
42591;BME280;28218;53.342;-6.216;2023-11-19T00:46:13;99665.22;;;11.92;100.00
42591;BME280;28218;53.342;-6.216;2023-11-19T00:48:41;99649.38;;;11.92;100.00
42591;BME280;28218;53.342;-6.216;2023-11-19T00:51:11;99654.88;;;11.97;100.00
42591;BME280;28218;53.342;-6.216;2023-11-19T00:53:40;99642.69;;;11.96;100.00
42591;BME280;28218;53.342;-6.216;2023-11-19T00:56:10;99651.41;;;11.96;100.00
42591;BME280;28218;53.342;-6.216;2023-11-19T00:58:39;99649.59;;;11.97;100.00
42591;BME280;28218;53.342;-6.216;2023-11-19T01:01:07;99655.28;;;12.00;100.00
42591;BME280;28218;53.342;-6.216;2023-11-19T01:03:37;99641.66;;;12.03;100.00
42591;BME280;28218;53.342;-6.216;2023-11-19T01:06:06;99627.66;;;12.03;100.00
42591;BME280;28218;53.342;-6.216;2023-11-19T01:08:35;99621.56;;;12.02;100.00
42591;BME280;28218;53.342;-6.216;2023-11-19T01:11:04;99621.97;;;11.99;100.00
42591;BME280;28218;53.342;-6.216;2023-11-19T01:13:32;99627.44;;;11.98;100.00
42591;BME280;28218;53.342;-6.216;2023-11-19T01:16:00;99616.09;;;11.97;100.00
42591;BME280;28218;53.342;-6.216;2023-11-19T01:18:29;99614.06;;;11.93;100.00
42591;BME280;28218;53.342;-6.216;2023-11-19T01:20:58;99607.38;;;11.90;100.00
42591;BME280;28218;53.342;-6.216;2023-11-19T01:23:26;99602.69;;;11.86;100.00
42591;BME280;28218;53.342;-6.216;2023-11-19T01:25:55;99606.53;;;11.83;100.00
42591;BME280;28218;53.342;-6.216;2023-11-19T01:28:23;99606.72;;;11.82;100.00
42591;BME280;28218;53.342;-6.216;2023-11-19T01:30:51;99601.03;;;11.78;100.00
42591;BME280;28218;53.342;-6.216;2023-11-19T01:33:19;99608.16;;;11.77;100.00
42591;BME280;28218;53.342;-6.216;2023-11-19T01:35:48;99598.19;;;11.73;100.00
42591;BME280;28218;53.342;-6.216;2023-11-19T01:38:17;99608.31;;;11.76;100.00
42591;BME280;28218;53.342;-6.216;2023-11-19T01:40:46;99608.31;;;11.76;100.00
42591;BME280;28218;53.342;-6.216;2023-11-19T01:43:32;99586.81;;;11.79;100.00
42591;BME280;28218;53.342;-6.216;2023-11-19T01:46:01;99595.78;;;11.85;100.00
42591;BME280;28218;53.342;-6.216;2023-11-19T01:48:31;99591.31;;;11.85;100.00
42591;BME280;28218;53.342;-6.216;2023-11-19T01:51:00;99601.69;;;11.87;100.00
42591;BME280;28218;53.342;-6.216;2023-11-19T01:53:31;99596.41;;;11.87;100.00
42591;BME280;28218;53.342;-6.216;2023-11-19T01:56:00;99606.72;;;11.82;100.00
42591;BME280;28218;53.342;-6.216;2023-11-19T01:58:29;99597.00;;;11.82;100.00
42591;BME280;28218;53.342;-6.216;2023-11-19T02:00:58;99590.50;;;11.85;100.00
42591;BME280;28218;53.342;-6.216;2023-11-19T02:03:26;99587.66;;;11.86;100.00
42591;BME280;28218;53.342;-6.216;2023-11-19T02:05:56;99581.97;;;11.89;100.00
42591;BME280;28218;53.342;-6.216;2023-11-19T02:08:25;99583.00;;;11.88;100.00
42591;BME280;28218;53.342;-6.216;2023-11-19T02:10:54;99579.75;;;11.86;100.00
42591;BME280;28218;53.342;-6.216;2023-11-19T02:13:24;99589.69;;;11.84;100.00
42591;BME280;28218;53.342;-6.216;2023-11-19T02:15:53;99582.56;;;11.85;100.00
42591;BME280;28218;53.342;-6.216;2023-11-19T02:18:22;99573.44;;;11.87;100.00
42591;BME280;28218;53.342;-6.216;2023-11-19T02:20:55;99582.41;;;11.86;100.00
42591;BME280;28218;53.342;-6.216;2023-11-19T02:23:25;99575.06;;;11.88;100.00
42591;BME280;28218;53.342;-6.216;2023-11-19T02:26:02;99580.34;;;11.88;100.00
42591;BME280;28218;53.342;-6.216;2023-11-19T02:28:36;99572.81;;;11.85;100.00
42591;BME280;28218;53.342;-6.216;2023-11-19T02:31:04;99577.72;;;11.88;100.00
42591;BME280;28218;53.342;-6.216;2023-11-19T02:33:37;99573.88;;;11.91;100.00
42591;BME280;28218;53.342;-6.216;2023-11-19T02:36:06;99569.41;;;11.91;100.00
42591;BME280;28218;53.342;-6.216;2023-11-19T02:38:35;99564.13;;;11.91;100.00
42591;BME280;28218;53.342;-6.216;2023-11-19T02:41:04;99552.53;;;11.92;100.00
42591;BME280;28218;53.342;-6.216;2023-11-19T02:43:35;99548.28;;;11.91;100.00
42591;BME280;28218;53.342;-6.216;2023-11-19T02:46:05;99557.00;;;11.92;100.00
42591;BME280;28218;53.342;-6.216;2023-11-19T02:48:37;99542.78;;;11.93;100.00
42591;BME280;28218;53.342;-6.216;2023-11-19T02:51:06;99544.63;;;11.92;100.00
42591;BME280;28218;53.342;-6.216;2023-11-19T02:53:37;99551.50;;;11.93;100.00
42591;BME280;28218;53.342;-6.216;2023-11-19T02:56:07;99551.50;;;11.93;100.00
42591;BME280;28218;53.342;-6.216;2023-11-19T02:58:44;99549.50;;;11.95;100.00
42591;BME280;28218;53.342;-6.216;2023-11-19T03:01:13;99548.66;;;11.95;100.00
42591;BME280;28218;53.342;-6.216;2023-11-19T03:03:50;99543.38;;;11.95;100.00
42591;BME280;28218;53.342;-6.216;2023-11-19T03:06:21;99542.56;;;11.94;100.00
42591;BME280;28218;53.342;-6.216;2023-11-19T03:08:49;99547.84;;;11.94;100.00
42591;BME280;28218;53.342;-6.216;2023-11-19T03:11:18;99546.84;;;11.95;100.00
42591;BME280;28218;53.342;-6.216;2023-11-19T03:13:47;99547.03;;;11.94;100.00
42591;BME280;28218;53.342;-6.216;2023-11-19T03:16:15;99544.81;;;11.91;100.00
42591;BME280;28218;53.342;-6.216;2023-11-19T03:18:44;99545.22;;;11.94;100.00
42591;BME280;28218;53.342;-6.216;2023-11-19T03:21:12;99545.41;;;11.93;100.00
42591;BME280;28218;53.342;-6.216;2023-11-19T03:23:40;99554.78;;;11.95;100.00
42591;BME280;28218;53.342;-6.216;2023-11-19T03:26:10;99545.81;;;11.96;100.00
42591;BME280;28218;53.342;-6.216;2023-11-19T03:28:38;99547.25;;;11.92;100.00
42591;BME280;28218;53.342;-6.216;2023-11-19T03:31:08;99543.38;;;12.01;100.00
42591;BME280;28218;53.342;-6.216;2023-11-19T03:33:36;99531.78;;;12.02;100.00
42591;BME280;28218;53.342;-6.216;2023-11-19T03:36:05;99537.88;;;12.03;100.00
42591;BME280;28218;53.342;-6.216;2023-11-19T03:38:34;99536.88;;;12.04;100.00
42591;BME280;28218;53.342;-6.216;2023-11-19T03:41:10;99527.13;;;12.05;100.00
42591;BME280;28218;53.342;-6.216;2023-11-19T03:43:38;99532.41;;;12.05;100.00
42591;BME280;28218;53.342;-6.216;2023-11-19T03:46:17;99518.19;;;12.06;100.00
42591;BME280;28218;53.342;-6.216;2023-11-19T03:48:46;99514.94;;;12.03;100.00
42591;BME280;28218;53.342;-6.216;2023-11-19T03:51:15;99516.97;;;12.01;100.00
42591;BME280;28218;53.342;-6.216;2023-11-19T03:53:43;99509.47;;;11.98;100.00
42591;BME280;28218;53.342;-6.216;2023-11-19T03:56:12;99498.31;;;11.96;100.00
42591;BME280;28218;53.342;-6.216;2023-11-19T03:58:40;99498.72;;;11.93;100.00
42591;BME280;28218;53.342;-6.216;2023-11-19T04:01:11;99501.13;;;11.95;100.00
42591;BME280;28218;53.342;-6.216;2023-11-19T04:03:42;99506.63;;;11.93;100.00
42591;BME280;28218;53.342;-6.216;2023-11-19T04:06:14;99504.81;;;11.94;100.00
42591;BME280;28218;53.342;-6.216;2023-11-19T04:08:42;99510.88;;;11.94;100.00
42591;BME280;28218;53.342;-6.216;2023-11-19T04:11:10;99511.09;;;11.93;100.00
42591;BME280;28218;53.342;-6.216;2023-11-19T04:13:38;99514.56;;;11.93;100.00
42591;BME280;28218;53.342;-6.216;2023-11-19T04:16:07;99515.38;;;11.94;100.00
42591;BME280;28218;53.342;-6.216;2023-11-19T04:18:36;99505.81;;;11.93;100.00
42591;BME280;28218;53.342;-6.216;2023-11-19T04:21:07;99501.97;;;11.95;100.00
42591;BME280;28218;53.342;-6.216;2023-11-19T04:23:35;99498.72;;;11.93;100.00
42591;BME280;28218;53.342;-6.216;2023-11-19T04:26:04;99505.59;;;11.94;100.00
42591;BME280;28218;53.342;-6.216;2023-11-19T04:28:36;99496.69;;;11.95;100.00
42591;BME280;28218;53.342;-6.216;2023-11-19T04:31:04;99489.38;;;11.97;100.00
42591;BME280;28218;53.342;-6.216;2023-11-19T04:33:33;99492.81;;;11.98;100.00
42591;BME280;28218;53.342;-6.216;2023-11-19T04:36:01;99498.09;;;11.98;100.00
42591;BME280;28218;53.342;-6.216;2023-11-19T04:38:31;99478.41;;;11.94;100.00
42591;BME280;28218;53.342;-6.216;2023-11-19T04:41:00;99483.69;;;11.94;100.00
42591;BME280;28218;53.342;-6.216;2023-11-19T04:43:28;99472.31;;;11.93;100.00
42591;BME280;28218;53.342;-6.216;2023-11-19T04:45:56;99483.72;;;11.87;100.00
42591;BME280;28218;53.342;-6.216;2023-11-19T04:48:25;99484.75;;;11.86;100.00
42591;BME280;28218;53.342;-6.216;2023-11-19T04:50:53;99508.50;;;11.86;100.00
42591;BME280;28218;53.342;-6.216;2023-11-19T04:53:21;99487.97;;;11.82;100.00
42591;BME280;28218;53.342;-6.216;2023-11-19T04:55:50;99490.59;;;11.82;100.00
42591;BME280;28218;53.342;-6.216;2023-11-19T04:58:19;99486.97;;;11.83;100.00
42591;BME280;28218;53.342;-6.216;2023-11-19T05:00:47;99493.06;;;11.83;100.00
42591;BME280;28218;53.342;-6.216;2023-11-19T05:03:16;99479.25;;;11.81;100.00
42591;BME280;28218;53.342;-6.216;2023-11-19T05:05:44;99487.78;;;11.83;100.00
42591;BME280;28218;53.342;-6.216;2023-11-19T05:08:13;99484.13;;;11.84;100.00
42591;BME280;28218;53.342;-6.216;2023-11-19T05:10:41;99484.13;;;11.84;100.00
42591;BME280;28218;53.342;-6.216;2023-11-19T05:13:11;99479.25;;;11.88;100.00
42591;BME280;28218;53.342;-6.216;2023-11-19T05:15:39;99480.84;;;11.89;100.00
42591;BME280;28218;53.342;-6.216;2023-11-19T05:18:07;99473.75;;;11.89;100.00
42591;BME280;28218;53.342;-6.216;2023-11-19T05:20:35;99478.44;;;11.87;100.00
42591;BME280;28218;53.342;-6.216;2023-11-19T05:23:04;99477.41;;;11.88;100.00
42591;BME280;28218;53.342;-6.216;2023-11-19T05:25:32;99478.84;;;11.91;100.00
42591;BME280;28218;53.342;-6.216;2023-11-19T05:28:00;99470.91;;;11.91;100.00
42591;BME280;28218;53.342;-6.216;2023-11-19T05:30:30;99476.56;;;11.94;100.00
42591;BME280;28218;53.342;-6.216;2023-11-19T05:32:58;99482.88;;;11.93;100.00
42591;BME280;28218;53.342;-6.216;2023-11-19T05:35:27;99472.09;;;11.95;100.00
42591;BME280;28218;53.342;-6.216;2023-11-19T05:37:55;99476.38;;;11.96;100.00
42591;BME280;28218;53.342;-6.216;2023-11-19T05:40:23;99474.75;;;11.95;100.00
42591;BME280;28218;53.342;-6.216;2023-11-19T05:42:52;99470.88;;;11.97;100.00
42591;BME280;28218;53.342;-6.216;2023-11-19T05:45:20;99471.91;;;11.96;100.00
42591;BME280;28218;53.342;-6.216;2023-11-19T05:47:50;99460.91;;;11.99;100.00
42591;BME280;28218;53.342;-6.216;2023-11-19T05:50:19;99470.66;;;11.99;100.00
42591;BME280;28218;53.342;-6.216;2023-11-19T05:52:47;99458.91;;;12.01;100.00
42591;BME280;28218;53.342;-6.216;2023-11-19T05:55:15;99460.50;;;12.02;100.00
42591;BME280;28218;53.342;-6.216;2023-11-19T05:57:44;99458.69;;;12.03;100.00
42591;BME280;28218;53.342;-6.216;2023-11-19T06:00:13;99459.88;;;12.07;100.00
42591;BME280;28218;53.342;-6.216;2023-11-19T06:02:42;99453.59;;;12.08;100.00
42591;BME280;28218;53.342;-6.216;2023-11-19T06:05:12;99460.28;;;12.11;100.00
42591;BME280;28218;53.342;-6.216;2023-11-19T06:07:40;99447.09;;;12.11;100.00
42591;BME280;28218;53.342;-6.216;2023-11-19T06:10:10;99457.66;;;12.11;100.00
42591;BME280;28218;53.342;-6.216;2023-11-19T06:12:41;99451.56;;;12.10;100.00
42591;BME280;28218;53.342;-6.216;2023-11-19T06:15:09;99456.03;;;12.10;100.00
42591;BME280;28218;53.342;-6.216;2023-11-19T06:17:38;99448.94;;;12.10;100.00
42591;BME280;28218;53.342;-6.216;2023-11-19T06:20:07;99443.44;;;12.12;100.00
42591;BME280;28218;53.342;-6.216;2023-11-19T06:22:37;99450.75;;;12.10;100.00
42591;BME280;28218;53.342;-6.216;2023-11-19T06:25:06;99450.31;;;12.13;100.00
42591;BME280;28218;53.342;-6.216;2023-11-19T06:27:35;99441.38;;;12.14;100.00
42591;BME280;28218;53.342;-6.216;2023-11-19T06:30:03;99441.59;;;12.12;100.00
42591;BME280;28218;53.342;-6.216;2023-11-19T06:32:32;99441.38;;;12.14;100.00
42591;BME280;28218;53.342;-6.216;2023-11-19T06:35:00;99438.72;;;12.14;100.00
42591;BME280;28218;53.342;-6.216;2023-11-19T06:37:31;99438.16;;;12.12;100.00
42591;BME280;28218;53.342;-6.216;2023-11-19T06:40:01;99436.94;;;12.14;100.00
42591;BME280;28218;53.342;-6.216;2023-11-19T06:42:29;99441.38;;;12.14;100.00
42591;BME280;28218;53.342;-6.216;2023-11-19T06:44:58;99431.66;;;12.14;100.00
42591;BME280;28218;53.342;-6.216;2023-11-19T06:47:26;99429.19;;;12.13;100.00
42591;BME280;28218;53.342;-6.216;2023-11-19T06:49:54;99433.09;;;12.10;100.00
42591;BME280;28218;53.342;-6.216;2023-11-19T06:52:23;99426.59;;;12.06;100.00
42591;BME280;28218;53.342;-6.216;2023-11-19T06:54:51;99434.91;;;12.03;100.00
42591;BME280;28218;53.342;-6.216;2023-11-19T06:57:35;99431.88;;;11.99;100.00
42591;BME280;28218;53.342;-6.216;2023-11-19T07:00:05;99432.09;;;11.98;100.00
42591;BME280;28218;53.342;-6.216;2023-11-19T07:02:33;99426.81;;;11.98;100.00
42591;BME280;28218;53.342;-6.216;2023-11-19T07:05:02;99428.25;;;12.00;100.00
42591;BME280;28218;53.342;-6.216;2023-11-19T07:07:31;99428.84;;;12.02;100.00
42591;BME280;28218;53.342;-6.216;2023-11-19T07:10:00;99425.97;;;12.04;100.00
42591;BME280;28218;53.342;-6.216;2023-11-19T07:12:28;99430.06;;;12.00;100.00
42591;BME280;28218;53.342;-6.216;2023-11-19T07:14:58;99423.56;;;12.02;100.00
42591;BME280;28218;53.342;-6.216;2023-11-19T07:17:27;99423.16;;;12.06;100.00
42591;BME280;28218;53.342;-6.216;2023-11-19T07:19:55;99420.69;;;12.11;100.00
42591;BME280;28218;53.342;-6.216;2023-11-19T07:22:26;99412.59;;;12.06;100.00
42591;BME280;28218;53.342;-6.216;2023-11-19T07:24:56;99414.78;;;12.09;100.00
42591;BME280;28218;53.342;-6.216;2023-11-19T07:27:25;99412.97;;;12.09;100.00
42591;BME280;28218;53.342;-6.216;2023-11-19T07:29:54;99401.19;;;12.12;100.00
42591;BME280;28218;53.342;-6.216;2023-11-19T07:32:24;99395.09;;;12.11;100.00
42591;BME280;28218;53.342;-6.216;2023-11-19T07:34:52;99396.69;;;12.12;100.00
42591;BME280;28218;53.342;-6.216;2023-11-19T07:37:20;99403.19;;;12.16;100.00
42591;BME280;28218;53.342;-6.216;2023-11-19T07:39:49;99396.28;;;12.15;100.00
42591;BME280;28218;53.342;-6.216;2023-11-19T07:42:17;99397.91;;;12.16;100.00
42591;BME280;28218;53.342;-6.216;2023-11-19T07:44:45;99390.41;;;12.13;100.00
42591;BME280;28218;53.342;-6.216;2023-11-19T07:47:13;99392.44;;;12.11;100.00
42591;BME280;28218;53.342;-6.216;2023-11-19T07:49:43;99382.47;;;12.13;100.00
42591;BME280;28218;53.342;-6.216;2023-11-19T07:52:11;99382.69;;;12.12;100.00
42591;BME280;28218;53.342;-6.216;2023-11-19T07:54:42;99382.09;;;12.10;100.00
42591;BME280;28218;53.342;-6.216;2023-11-19T07:57:10;99385.75;;;12.09;100.00
42591;BME280;28218;53.342;-6.216;2023-11-19T07:59:39;99390.22;;;12.08;100.00
42591;BME280;28218;53.342;-6.216;2023-11-19T08:02:15;99398.34;;;12.07;100.00
42591;BME280;28218;53.342;-6.216;2023-11-19T08:04:47;99393.88;;;12.07;100.00
42591;BME280;28218;53.342;-6.216;2023-11-19T08:07:19;99396.75;;;12.06;100.00
42591;BME280;28218;53.342;-6.216;2023-11-19T08:09:47;99405.88;;;12.10;100.00
42591;BME280;28218;53.342;-6.216;2023-11-19T08:12:15;99406.88;;;12.09;100.00
42591;BME280;28218;53.342;-6.216;2023-11-19T08:14:44;99398.94;;;12.09;100.00
42591;BME280;28218;53.342;-6.216;2023-11-19T08:17:12;99403.22;;;12.10;100.00
42591;BME280;28218;53.342;-6.216;2023-11-19T08:19:40;99392.66;;;12.10;100.00
42591;BME280;28218;53.342;-6.216;2023-11-19T08:22:10;99383.50;;;12.12;100.00
42591;BME280;28218;53.342;-6.216;2023-11-19T08:24:38;99391.81;;;12.16;100.00
42591;BME280;28218;53.342;-6.216;2023-11-19T08:27:06;99390.78;;;12.17;100.00
42591;BME280;28218;53.342;-6.216;2023-11-19T08:29:34;99388.78;;;12.19;100.00
42591;BME280;28218;53.342;-6.216;2023-11-19T08:32:03;99399.09;;;12.20;100.00
42591;BME280;28218;53.342;-6.216;2023-11-19T08:34:31;99401.13;;;12.25;100.00
42591;BME280;28218;53.342;-6.216;2023-11-19T08:37:00;99395.84;;;12.25;100.00
42591;BME280;28218;53.342;-6.216;2023-11-19T08:39:30;99383.22;;;12.27;100.00
42591;BME280;28218;53.342;-6.216;2023-11-19T08:41:58;99383.22;;;12.27;100.00
42591;BME280;28218;53.342;-6.216;2023-11-19T08:44:26;99381.38;;;12.27;100.00
42591;BME280;28218;53.342;-6.216;2023-11-19T08:46:54;99371.66;;;12.28;100.00
42591;BME280;28218;53.342;-6.216;2023-11-19T08:49:23;99375.53;;;12.25;100.00
42591;BME280;28218;53.342;-6.216;2023-11-19T08:51:51;99384.66;;;12.23;100.00
42591;BME280;28218;53.342;-6.216;2023-11-19T08:54:19;99389.13;;;12.22;100.00
42591;BME280;28218;53.342;-6.216;2023-11-19T08:56:51;99384.25;;;12.26;100.00
42591;BME280;28218;53.342;-6.216;2023-11-19T08:59:19;99390.16;;;12.28;100.00
42591;BME280;28218;53.342;-6.216;2023-11-19T09:01:47;99388.91;;;12.31;100.00
42591;BME280;28218;53.342;-6.216;2023-11-19T09:04:15;99382.41;;;12.33;100.00
42591;BME280;28218;53.342;-6.216;2023-11-19T09:06:44;99381.13;;;12.36;100.00
42591;BME280;28218;53.342;-6.216;2023-11-19T09:09:13;99377.09;;;12.33;100.00
42591;BME280;28218;53.342;-6.216;2023-11-19T09:11:41;99377.47;;;12.37;100.00
42591;BME280;28218;53.342;-6.216;2023-11-19T09:14:10;99370.34;;;12.37;100.00
42591;BME280;28218;53.342;-6.216;2023-11-19T09:16:39;99370.56;;;12.36;100.00
42591;BME280;28218;53.342;-6.216;2023-11-19T09:19:07;99377.31;;;12.32;100.00
42591;BME280;28218;53.342;-6.216;2023-11-19T09:21:35;99368.34;;;12.33;100.00
42591;BME280;28218;53.342;-6.216;2023-11-19T09:24:05;99373.44;;;12.34;100.00
42591;BME280;28218;53.342;-6.216;2023-11-19T09:26:34;99377.47;;;12.37;100.00
42591;BME280;28218;53.342;-6.216;2023-11-19T09:29:03;99363.47;;;12.36;100.00
42591;BME280;28218;53.342;-6.216;2023-11-19T09:31:33;99367.94;;;12.36;100.00
42591;BME280;28218;53.342;-6.216;2023-11-19T09:34:01;99378.50;;;12.36;100.00
42591;BME280;28218;53.342;-6.216;2023-11-19T09:36:29;99373.63;;;12.39;100.00
42591;BME280;28218;53.342;-6.216;2023-11-19T09:38:58;99374.81;;;12.43;100.00
42591;BME280;28218;53.342;-6.216;2023-11-19T09:41:27;99375.19;;;12.47;100.00
42591;BME280;28218;53.342;-6.216;2023-11-19T09:43:55;99373.94;;;12.49;100.00
42591;BME280;28218;53.342;-6.216;2023-11-19T09:46:25;99387.94;;;12.57;100.00
42591;BME280;28218;53.342;-6.216;2023-11-19T09:48:56;99382.22;;;12.60;100.00
42591;BME280;28218;53.342;-6.216;2023-11-19T09:51:26;99384.44;;;12.63;100.00
42591;BME280;28218;53.342;-6.216;2023-11-19T09:53:54;99385.47;;;12.62;100.00
42591;BME280;28218;53.342;-6.216;2023-11-19T09:56:23;99395.59;;;12.65;100.00
42591;BME280;28218;53.342;-6.216;2023-11-19T09:58:51;99386.44;;;12.67;100.00
42591;BME280;28218;53.342;-6.216;2023-11-19T10:01:20;99380.34;;;12.67;100.00
42591;BME280;28218;53.342;-6.216;2023-11-19T10:03:56;99392.31;;;12.69;100.00
42591;BME280;28218;53.342;-6.216;2023-11-19T10:06:24;99390.47;;;12.70;100.00
42591;BME280;28218;53.342;-6.216;2023-11-19T10:08:54;99394.53;;;12.72;100.00
42591;BME280;28218;53.342;-6.216;2023-11-19T10:11:23;99398.38;;;12.76;100.00
42591;BME280;28218;53.342;-6.216;2023-11-19T10:13:52;99394.69;;;12.77;100.00
42591;BME280;28218;53.342;-6.216;2023-11-19T10:16:28;99397.56;;;12.76;100.00
42591;BME280;28218;53.342;-6.216;2023-11-19T10:18:58;99404.47;;;12.77;100.00
42591;BME280;28218;53.342;-6.216;2023-11-19T10:21:26;99421.34;;;12.76;100.00
42591;BME280;28218;53.342;-6.216;2023-11-19T10:23:56;99411.78;;;12.75;100.00
42591;BME280;28218;53.342;-6.216;2023-11-19T10:26:27;99416.88;;;12.76;100.00
42591;BME280;28218;53.342;-6.216;2023-11-19T10:28:56;99410.34;;;12.79;100.00
42591;BME280;28218;53.342;-6.216;2023-11-19T10:31:24;99414.41;;;12.82;100.00
42591;BME280;28218;53.342;-6.216;2023-11-19T10:33:53;99432.03;;;12.88;100.00
42591;BME280;28218;53.342;-6.216;2023-11-19T10:36:37;99436.91;;;12.91;100.00
42591;BME280;28218;53.342;-6.216;2023-11-19T10:39:05;99431.19;;;12.94;100.00
42591;BME280;28218;53.342;-6.216;2023-11-19T10:41:33;99432.34;;;12.98;100.00
42591;BME280;28218;53.342;-6.216;2023-11-19T10:44:02;99442.28;;;13.02;100.00
42591;BME280;28218;53.342;-6.216;2023-11-19T10:46:37;99448.56;;;13.08;100.00
42591;BME280;28218;53.342;-6.216;2023-11-19T10:49:07;99443.06;;;13.10;100.00
42591;BME280;28218;53.342;-6.216;2023-11-19T10:51:39;99451.38;;;13.13;100.00
42591;BME280;28218;53.342;-6.216;2023-11-19T10:54:13;99455.56;;;13.21;100.00
42591;BME280;28218;53.342;-6.216;2023-11-19T10:56:44;99461.88;;;13.26;100.00
42591;BME280;28218;53.342;-6.216;2023-11-19T10:59:15;99469.81;;;13.26;100.00
42591;BME280;28218;53.342;-6.216;2023-11-19T11:01:52;99459.41;;;13.32;100.00
42591;BME280;28218;53.342;-6.216;2023-11-19T11:04:23;99468.72;;;13.34;100.00
42591;BME280;28218;53.342;-6.216;2023-11-19T11:06:54;99461.41;;;13.36;100.00
42591;BME280;28218;53.342;-6.216;2023-11-19T11:09:22;99476.44;;;13.36;100.00
42591;BME280;28218;53.342;-6.216;2023-11-19T11:11:51;99479.94;;;13.36;100.00
42591;BME280;28218;53.342;-6.216;2023-11-19T11:14:20;99480.13;;;13.35;100.00
42591;BME280;28218;53.342;-6.216;2023-11-19T11:16:49;99475.22;;;13.38;100.00
42591;BME280;28218;53.342;-6.216;2023-11-19T11:19:19;99491.50;;;13.35;100.00
42591;BME280;28218;53.342;-6.216;2023-11-19T11:21:50;99487.03;;;13.36;100.00
42591;BME280;28218;53.342;-6.216;2023-11-19T11:30:26;99494.78;;;13.37;100.00
42591;BME280;28218;53.342;-6.216;2023-11-19T11:33:08;99491.75;;;13.34;100.00
42591;BME280;28218;53.342;-6.216;2023-11-19T11:35:49;99491.97;;;13.32;100.00
42591;BME280;28218;53.342;-6.216;2023-11-19T11:38:22;99501.66;;;13.38;100.00
42591;BME280;28218;53.342;-6.216;2023-11-19T11:41:14;99502.88;;;13.42;100.00
42591;BME280;28218;53.342;-6.216;2023-11-19T11:43:48;99496.31;;;13.45;100.00
42591;BME280;28218;53.342;-6.216;2023-11-19T11:49:28;99512.19;;;13.45;100.00
42591;BME280;28218;53.342;-6.216;2023-11-19T11:52:03;99508.91;;;13.49;100.00
42591;BME280;28218;53.342;-6.216;2023-11-19T11:54:32;99511.53;;;13.49;100.00
42591;BME280;28218;53.342;-6.216;2023-11-19T11:57:07;99504.47;;;13.43;100.00
42591;BME280;28218;53.342;-6.216;2023-11-19T11:59:51;99513.88;;;13.39;100.00
42591;BME280;28218;53.342;-6.216;2023-11-19T12:02:21;99528.28;;;13.43;100.00
42591;BME280;28218;53.342;-6.216;2023-11-19T12:04:51;99510.19;;;13.40;100.00
42591;BME280;28218;53.342;-6.216;2023-11-19T12:07:21;99531.81;;;13.37;100.00
42591;BME280;28218;53.342;-6.216;2023-11-19T12:09:52;99537.09;;;13.37;100.00
42591;BME280;28218;53.342;-6.216;2023-11-19T12:12:27;99539.13;;;13.35;100.00
42591;BME280;28218;53.342;-6.216;2023-11-19T12:15:07;99533.25;;;13.33;100.00
42591;BME280;28218;53.342;-6.216;2023-11-19T12:17:48;99530.84;;;13.32;100.00
42591;BME280;28218;53.342;-6.216;2023-11-19T12:20:21;99536.31;;;13.30;100.00
42591;BME280;28218;53.342;-6.216;2023-11-19T12:22:53;99540.38;;;13.33;100.00
42591;BME280;28218;53.342;-6.216;2023-11-19T12:25:22;99546.31;;;13.28;100.00
42591;BME280;28218;53.342;-6.216;2023-11-19T12:27:51;99552.25;;;13.23;100.00
42591;BME280;28218;53.342;-6.216;2023-11-19T12:30:23;99566.66;;;13.21;100.00
42591;BME280;28218;53.342;-6.216;2023-11-19T12:32:53;99564.88;;;13.15;100.00
42591;BME280;28218;53.342;-6.216;2023-11-19T12:35:22;99568.75;;;13.12;100.00
42591;BME280;28218;53.342;-6.216;2023-11-19T12:37:51;99582.81;;;13.13;100.00
42591;BME280;28218;53.342;-6.216;2023-11-19T12:40:23;99580.16;;;13.13;100.00
42591;BME280;28218;53.342;-6.216;2023-11-19T12:46:44;99592.38;;;13.07;100.00
42591;BME280;28218;53.342;-6.216;2023-11-19T12:49:12;99604.78;;;13.07;100.00
42591;BME280;28218;53.342;-6.216;2023-11-19T12:51:40;99601.75;;;13.10;100.00
42591;BME280;28218;53.342;-6.216;2023-11-19T12:54:09;99601.91;;;13.15;100.00
42591;BME280;28218;53.342;-6.216;2023-11-19T12:56:37;99608.00;;;13.15;100.00
42591;BME280;28218;53.342;-6.216;2023-11-19T12:59:11;99605.38;;;13.15;100.00
42591;BME280;28218;53.342;-6.216;2023-11-19T13:01:40;99638.53;;;13.18;100.00
42591;BME280;28218;53.342;-6.216;2023-11-19T13:04:17;99647.28;;;13.12;100.00
42591;BME280;28218;53.342;-6.216;2023-11-19T13:06:46;99635.09;;;13.11;100.00